Time;durP1;ratioP1;P1;durP2;ratioP2;P2;SDS_P1;SDS_P2;PMS_P1;PMS_P2;Temp;Humidity;BMP_temperature;BMP_pressure;BME280_temperature;BME280_humidity;BME280_pressure;Samples;Min_cycle;Max_cycle;Signal;HPM_P1;HPM_P2
2022/07/14 00:00:46;;;;;;;2.05;1.20;;;19.70;66.00;;;;;;5001692;28;20567;-58
2022/07/14 00:03:13;;;;;;;3.00;1.10;;;19.60;66.50;;;;;;4991740;28;20045;-58
2022/07/14 00:05:40;;;;;;;1.83;1.00;;;19.50;65.50;;;;;;4992271;28;20064;-58
2022/07/14 00:08:08;;;;;;;1.88;1.20;;;19.50;64.90;;;;;;4987818;28;20049;-58
2022/07/14 00:10:35;;;;;;;3.25;1.15;;;19.40;65.90;;;;;;5007908;28;20155;-58
2022/07/14 00:13:02;;;;;;;4.40;1.15;;;19.40;66.00;;;;;;5006649;28;20033;-59
2022/07/14 00:15:29;;;;;;;1.67;1.15;;;19.30;65.90;;;;;;5007689;28;20045;-58
2022/07/14 00:17:58;;;;;;;0.77;0.70;;;19.30;65.60;;;;;;4986698;28;20037;-57
2022/07/14 00:20:26;;;;;;;1.25;0.98;;;19.30;66.10;;;;;;4989205;28;20051;-58
2022/07/14 00:22:56;;;;;;;1.05;0.90;;;19.20;66.50;;;;;;4990159;28;20041;-58
2022/07/14 00:25:24;;;;;;;1.77;1.17;;;19.30;66.10;;;;;;5011910;28;20770;-58
2022/07/14 00:27:51;;;;;;;5.97;1.08;;;19.30;65.20;;;;;;5014377;28;20040;-58
2022/07/14 00:30:19;;;;;;;3.67;0.90;;;19.30;64.90;;;;;;5010300;28;20033;-57
2022/07/14 00:32:47;;;;;;;1.92;0.88;;;19.30;65.20;;;;;;5011780;28;20565;-58
2022/07/14 00:35:15;;;;;;;1.05;0.95;;;19.30;65.30;;;;;;5009878;28;20051;-59
2022/07/14 00:37:42;;;;;;;1.73;1.33;;;19.30;65.40;;;;;;5012067;28;20723;-58
2022/07/14 00:40:10;;;;;;;1.98;0.98;;;19.30;66.00;;;;;;5011424;28;20767;-57
2022/07/14 00:42:44;;;;;;;1.98;1.20;;;19.30;66.00;;;;;;5014197;28;20501;-57
2022/07/14 00:45:15;;;;;;;1.65;1.00;;;19.20;64.90;;;;;;5013545;28;20033;-58
2022/07/14 00:47:42;;;;;;;1.38;1.13;;;19.20;66.00;;;;;;5010672;28;20220;-58
2022/07/14 00:50:11;;;;;;;3.50;1.00;;;19.20;66.10;;;;;;5009072;28;20044;-58
2022/07/14 00:52:42;;;;;;;3.15;1.35;;;19.20;66.10;;;;;;5009722;28;20036;-58
2022/07/14 00:55:12;;;;;;;4.03;1.08;;;19.20;66.20;;;;;;5011223;28;20222;-58
2022/07/14 00:57:39;;;;;;;1.25;0.95;;;19.20;66.60;;;;;;5004341;28;20044;-58
2022/07/14 01:00:09;;;;;;;1.20;1.00;;;19.20;66.40;;;;;;5011957;28;20051;-58
2022/07/14 01:02:37;;;;;;;4.43;1.00;;;19.20;66.50;;;;;;4994711;28;20217;-58
2022/07/14 01:05:06;;;;;;;1.27;1.15;;;19.30;67.10;;;;;;4987256;28;20394;-58
2022/07/14 01:07:33;;;;;;;1.55;0.93;;;19.30;68.40;;;;;;4991682;28;20064;-57
2022/07/14 01:10:01;;;;;;;1.23;0.80;;;19.30;64.80;;;;;;4999530;28;20044;-58
2022/07/14 01:12:27;;;;;;;9.43;1.23;;;19.30;65.60;;;;;;5011949;28;20041;-58
2022/07/14 01:14:54;;;;;;;1.00;0.90;;;19.40;65.90;;;;;;4989474;28;20040;-57
2022/07/14 01:17:22;;;;;;;1.58;1.02;;;19.40;66.40;;;;;;4990561;28;20042;-58
2022/07/14 01:19:49;;;;;;;1.85;0.95;;;19.40;66.90;;;;;;4989704;28;20118;-58
2022/07/14 01:22:16;;;;;;;1.20;1.02;;;19.40;66.60;;;;;;4989525;28;20044;-58
2022/07/14 01:24:43;;;;;;;2.47;1.00;;;19.40;65.30;;;;;;4989923;28;20103;-58
2022/07/14 01:27:11;;;;;;;3.50;2.05;;;19.40;66.10;;;;;;4978925;28;20599;-57
2022/07/14 01:29:38;;;;;;;1.15;1.08;;;19.40;66.40;;;;;;5005047;28;20459;-58
2022/07/14 01:32:05;;;;;;;0.95;0.88;;;19.40;66.10;;;;;;4998203;28;20056;-58
2022/07/14 01:34:32;;;;;;;1.90;1.20;;;19.40;65.30;;;;;;5008389;28;20028;-58
2022/07/14 01:36:59;;;;;;;1.70;1.05;;;19.40;65.70;;;;;;5004529;28;20037;-59
2022/07/14 01:39:26;;;;;;;1.38;1.25;;;19.40;66.90;;;;;;5010744;28;20047;-57
2022/07/14 01:41:54;;;;;;;1.15;1.05;;;19.40;68.30;;;;;;5009094;28;20036;-58
2022/07/14 01:44:21;;;;;;;3.22;1.10;;;19.40;68.40;;;;;;5009808;28;20051;-58
2022/07/14 01:46:48;;;;;;;2.30;1.02;;;19.40;68.50;;;;;;5010794;28;20075;-58
2022/07/14 01:49:18;;;;;;;2.88;1.20;;;19.40;68.70;;;;;;4990714;28;20230;-58
2022/07/14 01:51:45;;;;;;;1.27;0.98;;;19.40;68.80;;;;;;5011390;28;20223;-58
2022/07/14 01:54:13;;;;;;;5.72;1.10;;;19.40;69.90;;;;;;5004741;28;20186;-57
2022/07/14 01:56:41;;;;;;;2.03;0.95;;;19.40;71.60;;;;;;5008914;28;20158;-58
2022/07/14 01:59:12;;;;;;;1.27;0.80;;;19.30;69.00;;;;;;5006775;28;20044;-57
2022/07/14 02:01:40;;;;;;;3.95;0.82;;;19.30;69.90;;;;;;5002295;28;20283;-58
2022/07/14 02:04:13;;;;;;;0.82;0.82;;;19.30;70.50;;;;;;5007436;28;20598;-57
2022/07/14 02:06:43;;;;;;;6.80;1.25;;;19.30;71.10;;;;;;4995374;28;20126;-58
2022/07/14 02:09:17;;;;;;;2.05;1.02;;;19.30;71.50;;;;;;5007870;28;20040;-57
2022/07/14 02:14:33;;;;;;;0.80;0.80;;;19.30;70.70;;;;;;4993151;28;20033;-58
2022/07/14 02:17:01;;;;;;;8.15;1.23;;;19.30;72.00;;;;;;5000729;28;20045;-58
2022/07/14 02:19:28;;;;;;;2.42;0.93;;;19.20;72.70;;;;;;4988919;28;20049;-58
2022/07/14 02:21:55;;;;;;;1.30;0.95;;;19.20;72.90;;;;;;4985127;28;20143;-58
2022/07/14 02:24:23;;;;;;;1.10;1.00;;;19.10;72.90;;;;;;5003238;28;20036;-58
2022/07/14 02:26:51;;;;;;;3.17;1.45;;;19.10;74.90;;;;;;5024584;28;20048;-58
2022/07/14 02:29:19;;;;;;;2.42;1.30;;;19.10;77.30;;;;;;5023224;28;20475;-59
2022/07/14 02:31:47;;;;;;;4.07;1.40;;;19.10;75.20;;;;;;5011951;28;20140;-59
2022/07/14 02:34:15;;;;;;;1.10;1.00;;;19.00;75.50;;;;;;5006466;28;20044;-58
2022/07/14 02:36:43;;;;;;;3.00;1.30;;;19.00;76.80;;;;;;5009166;28;20264;-58
2022/07/14 02:39:12;;;;;;;1.55;0.95;;;18.90;77.20;;;;;;5018667;28;20044;-58
2022/07/14 02:41:43;;;;;;;2.00;1.10;;;18.90;79.40;;;;;;5009632;28;20044;-57
2022/07/14 02:44:12;;;;;;;0.68;0.68;;;18.90;82.10;;;;;;5009774;28;20047;-58
2022/07/14 02:46:41;;;;;;;3.08;1.33;;;18.90;84.10;;;;;;5010740;28;20041;-58
2022/07/14 02:49:08;;;;;;;1.05;1.05;;;18.90;89.10;;;;;;5003838;28;20071;-58
2022/07/14 02:51:38;;;;;;;1.67;1.02;;;18.90;85.70;;;;;;5024530;28;20051;-57
2022/07/14 02:54:05;;;;;;;3.90;1.30;;;18.90;88.10;;;;;;5010231;28;20041;-58
2022/07/14 02:56:34;;;;;;;1.20;1.10;;;18.80;90.80;;;;;;5004882;28;20248;-57
2022/07/14 02:59:06;;;;;;;1.98;1.10;;;18.80;89.70;;;;;;5008015;28;20217;-58
2022/07/14 03:01:36;;;;;;;1.88;0.98;;;18.80;87.70;;;;;;5000303;28;20903;-58
2022/07/14 03:04:06;;;;;;;5.75;1.45;;;18.80;87.10;;;;;;4999964;28;20371;-58
2022/07/14 03:06:34;;;;;;;3.40;1.10;;;18.80;86.10;;;;;;5001256;28;20048;-58
2022/07/14 03:09:04;;;;;;;3.28;1.20;;;18.80;88.30;;;;;;5006737;28;20190;-58
2022/07/14 03:11:31;;;;;;;3.92;1.00;;;18.80;83.00;;;;;;4987075;28;20052;-58
2022/07/14 03:13:59;;;;;;;1.60;1.00;;;18.80;84.10;;;;;;4999507;28;20040;-58
2022/07/14 03:16:26;;;;;;;2.50;0.85;;;18.90;83.00;;;;;;5023676;28;20510;-58
2022/07/14 03:18:58;;;;;;;1.73;0.90;;;18.80;81.80;;;;;;5004153;28;20071;-58
2022/07/14 03:21:25;;;;;;;1.45;0.90;;;18.90;81.70;;;;;;5024302;28;20053;-58
2022/07/14 03:23:56;;;;;;;3.13;1.20;;;18.90;84.10;;;;;;5014442;28;20151;-58
2022/07/14 03:26:28;;;;;;;2.40;1.17;;;18.90;82.70;;;;;;5005644;28;20041;-59
2022/07/14 03:28:55;;;;;;;1.48;0.90;;;18.90;84.20;;;;;;5005511;28;20131;-58
2022/07/14 03:31:23;;;;;;;2.88;1.00;;;18.90;83.60;;;;;;4971965;28;20679;-58
2022/07/14 03:33:52;;;;;;;1.15;0.98;;;18.90;82.50;;;;;;4969141;28;20037;-58
2022/07/14 03:36:21;;;;;;;2.97;1.10;;;18.90;80.30;;;;;;5015197;28;20110;-58
2022/07/14 03:38:49;;;;;;;0.93;0.90;;;18.90;80.30;;;;;;5012738;28;20055;-58
2022/07/14 03:41:16;;;;;;;1.92;1.10;;;18.90;81.20;;;;;;5010652;28;20317;-58
2022/07/14 03:43:44;;;;;;;5.45;1.13;;;18.90;81.20;;;;;;5012422;28;20045;-58
2022/07/14 03:46:13;;;;;;;1.02;0.93;;;18.90;79.90;;;;;;5009937;28;20654;-56
2022/07/14 03:48:49;;;;;;;0.77;0.77;;;19.00;79.50;;;;;;5009400;28;20045;-59
2022/07/14 03:51:17;;;;;;;2.88;0.82;;;19.00;80.30;;;;;;5008441;28;20368;-58
2022/07/14 03:53:45;;;;;;;2.45;1.23;;;19.00;82.30;;;;;;5010683;28;20865;-58
2022/07/14 03:56:12;;;;;;;0.80;0.77;;;19.00;84.20;;;;;;5011121;28;20114;-58
2022/07/14 03:58:44;;;;;;;1.38;1.00;;;19.00;87.20;;;;;;5009249;28;20575;-58
2022/07/14 04:01:14;;;;;;;5.05;1.10;;;18.90;84.70;;;;;;5012387;28;20276;-57
2022/07/14 04:03:43;;;;;;;1.20;0.93;;;18.90;82.30;;;;;;5026055;28;20044;-58
2022/07/14 04:06:12;;;;;;;1.23;1.10;;;19.00;81.40;;;;;;5006526;28;20048;-58
2022/07/14 04:08:40;;;;;;;3.35;0.73;;;19.00;85.00;;;;;;5008726;28;20221;-60
2022/07/14 04:11:09;;;;;;;0.98;0.98;;;19.00;84.80;;;;;;5007151;28;20369;-61
2022/07/14 04:13:37;;;;;;;0.80;0.70;;;19.00;86.10;;;;;;5017136;28;20588;-62
2022/07/14 04:16:05;;;;;;;1.13;0.85;;;19.10;86.50;;;;;;4990219;28;20379;-58
2022/07/14 04:18:37;;;;;;;2.17;1.15;;;19.10;86.00;;;;;;4993698;28;20055;-60
2022/07/14 04:21:08;;;;;;;1.20;1.10;;;19.10;86.10;;;;;;4993939;28;20283;-58
2022/07/14 04:23:38;;;;;;;2.55;1.20;;;19.20;86.60;;;;;;4996366;28;20624;-59
2022/07/14 04:26:07;;;;;;;0.85;0.85;;;19.20;88.50;;;;;;5025715;28;20897;-59
2022/07/14 04:28:34;;;;;;;2.58;1.17;;;19.30;89.40;;;;;;5030706;28;20364;-58
2022/07/14 04:31:02;;;;;;;1.10;1.00;;;19.20;90.70;;;;;;5028128;28;20578;-58
2022/07/14 04:33:31;;;;;;;1.35;1.25;;;19.30;92.80;;;;;;5027496;28;20059;-59
2022/07/14 04:36:00;;;;;;;2.00;1.17;;;19.30;93.80;;;;;;5006744;28;20755;-59
2022/07/14 04:38:29;;;;;;;1.33;0.80;;;19.30;93.00;;;;;;4998650;28;20336;-58
2022/07/14 04:41:02;;;;;;;0.90;0.90;;;19.40;92.70;;;;;;5010909;28;20521;-59
2022/07/14 04:43:34;;;;;;;1.85;1.00;;;19.50;98.30;;;;;;5008278;28;20629;-60
2022/07/14 04:46:03;;;;;;;1.33;1.02;;;19.40;99.90;;;;;;5013269;28;20040;-59
2022/07/14 04:52:01;;;;;;;1.48;1.10;;;19.40;99.50;;;;;;5007648;28;20201;-58
2022/07/14 04:54:06;;;;;;;3.45;0.90;;;19.50;97.50;;;;;;5004498;28;20033;-59
2022/07/14 04:57:03;;;;;;;3.22;1.20;;;19.50;98.90;;;;;;4971237;28;21056;-60
2022/07/14 04:59:35;;;;;;;2.83;1.10;;;19.50;97.70;;;;;;4987880;28;20111;-54
2022/07/14 05:02:02;;;;;;;1.65;1.33;;;19.60;96.90;;;;;;5020222;28;20032;-54
2022/07/14 05:04:31;;;;;;;5.82;1.23;;;19.60;96.20;;;;;;5006080;28;20045;-54
2022/07/14 05:07:00;;;;;;;1.67;0.90;;;19.60;93.00;;;;;;5015788;28;20037;-53
2022/07/14 05:09:38;;;;;;;2.53;1.10;;;19.70;93.30;;;;;;5013891;28;20044;-54
2022/07/14 05:12:07;;;;;;;2.20;1.10;;;19.70;92.40;;;;;;5003268;28;20055;-53
2022/07/14 05:14:34;;;;;;;3.90;0.90;;;19.70;94.60;;;;;;5004701;28;20527;-54
2022/07/14 05:17:02;;;;;;;2.10;1.05;;;19.70;94.80;;;;;;5004222;28;20052;-54
2022/07/14 05:19:51;;;;;;;3.03;1.08;;;19.70;93.40;;;;;;4993326;28;20415;-54
2022/07/14 05:22:19;;;;;;;4.43;1.33;;;19.70;94.90;;;;;;4988539;28;20123;-53
2022/07/14 05:24:46;;;;;;;5.35;1.35;;;19.70;96.40;;;;;;5007107;28;20070;-53
2022/07/14 05:27:13;;;;;;;2.75;0.77;;;19.60;96.90;;;;;;4992002;28;20305;-55
2022/07/14 05:29:41;;;;;;;2.40;1.08;;;19.60;98.40;;;;;;4991357;28;20037;-57
2022/07/14 05:32:08;;;;;;;7.63;1.40;;;19.50;99.40;;;;;;4992825;28;20033;-58
2022/07/14 05:34:42;;;;;;;3.20;1.13;;;19.50;99.30;;;;;;4988662;28;20369;-58
2022/07/14 05:37:12;;;;;;;22.10;2.25;;;19.40;97.80;;;;;;5007894;28;20428;-58
2022/07/14 05:39:39;;;;;;;8.27;2.08;;;19.50;99.90;;;;;;4987187;28;20067;-56
2022/07/14 05:42:06;;;;;;;9.90;2.35;;;19.50;99.00;;;;;;5002676;28;20036;-57
2022/07/14 05:44:35;;;;;;;4.07;1.20;;;19.50;98.40;;;;;;4983096;28;20209;-57
2022/07/14 05:47:02;;;;;;;4.60;1.40;;;19.60;98.80;;;;;;4986101;28;20285;-55
2022/07/14 05:49:29;;;;;;;1.88;1.00;;;19.70;99.40;;;;;;4992096;28;20134;-54
2022/07/14 05:51:56;;;;;;;1.45;0.70;;;19.80;98.30;;;;;;5004603;28;20287;-54
2022/07/14 05:54:24;;;;;;;1.73;1.02;;;19.90;98.70;;;;;;4994308;28;20044;-57
2022/07/14 05:56:51;;;;;;;2.10;1.10;;;20.00;99.80;;;;;;5005647;28;20040;-56
2022/07/14 05:59:19;;;;;;;6.50;1.73;;;20.10;99.90;;;;;;5007989;28;20161;-56
2022/07/14 06:02:06;;;;;;;2.15;1.17;;;20.20;99.90;;;;;;4997847;28;20037;-56
2022/07/14 06:04:34;;;;;;;4.93;1.13;;;20.40;99.90;;;;;;5006429;28;20036;-56
2022/07/14 06:07:01;;;;;;;4.40;1.35;;;20.40;99.90;;;;;;4988516;28;20354;-54
2022/07/14 06:09:29;;;;;;;1.77;0.98;;;20.50;92.80;;;;;;5011255;28;20032;-56
2022/07/14 06:11:58;;;;;;;3.85;0.98;;;20.50;93.80;;;;;;4997599;28;20068;-57
2022/07/14 06:14:26;;;;;;;2.95;1.20;;;20.60;94.10;;;;;;5003065;28;20410;-57
2022/07/14 06:16:53;;;;;;;1.35;1.10;;;20.70;92.10;;;;;;5010177;28;20045;-56
2022/07/14 06:19:20;;;;;;;6.13;1.17;;;20.80;89.40;;;;;;4991130;28;20036;-58
2022/07/14 06:21:47;;;;;;;2.95;1.13;;;20.90;91.40;;;;;;5009667;28;20563;-56
2022/07/14 06:24:14;;;;;;;1.40;1.00;;;21.00;89.10;;;;;;5014463;28;20045;-56
2022/07/14 06:26:42;;;;;;;7.78;1.10;;;21.00;89.60;;;;;;5026202;28;20048;-56
2022/07/14 06:29:10;;;;;;;1.55;1.10;;;21.00;92.00;;;;;;5006005;28;20122;-56
2022/07/14 06:31:38;;;;;;;3.00;1.00;;;21.10;92.10;;;;;;4991747;28;20598;-58
2022/07/14 06:34:07;;;;;;;5.95;1.30;;;21.10;92.80;;;;;;5008028;28;20182;-57
2022/07/14 06:36:46;;;;;;;0.98;0.80;;;21.20;97.50;;;;;;5003894;28;20571;-56
2022/07/14 06:39:14;;;;;;;5.07;1.20;;;21.20;93.40;;;;;;5024284;28;20052;-57
2022/07/14 06:41:42;;;;;;;3.28;1.23;;;21.20;91.70;;;;;;5005574;28;20343;-58
2022/07/14 06:44:11;;;;;;;2.33;0.93;;;21.30;94.30;;;;;;5007619;28;20051;-58
2022/07/14 06:46:38;;;;;;;4.75;0.95;;;21.50;93.10;;;;;;5007120;28;20056;-57
2022/07/14 06:49:06;;;;;;;1.45;1.10;;;21.70;88.50;;;;;;5021414;28;20059;-56
2022/07/14 06:51:34;;;;;;;1.77;1.05;;;22.00;91.20;;;;;;5010162;28;20056;-58
2022/07/14 06:54:02;;;;;;;1.73;1.13;;;22.30;89.20;;;;;;5008704;28;20617;-57
2022/07/14 06:56:29;;;;;;;3.65;1.63;;;22.50;87.90;;;;;;5011847;28;20792;-57
2022/07/14 06:58:55;;;;;;;3.08;1.00;;;22.60;91.10;;;;;;5019486;28;20041;-56
2022/07/14 07:01:22;;;;;;;11.13;1.50;;;22.70;92.60;;;;;;4996230;28;20327;-58
2022/07/14 07:03:49;;;;;;;11.95;1.27;;;22.80;94.10;;;;;;4987528;28;20762;-57
2022/07/14 07:09:02;;;;;;;3.67;1.08;;;22.90;93.80;;;;;;5021792;28;20049;-59
2022/07/14 07:11:29;;;;;;;4.65;1.00;;;23.00;91.70;;;;;;5020587;28;20386;-57
2022/07/14 07:13:56;;;;;;;9.00;1.30;;;23.10;91.60;;;;;;5007052;28;20055;-56
2022/07/14 07:16:25;;;;;;;2.33;1.30;;;23.20;90.80;;;;;;5035507;28;20040;-58
2022/07/14 07:18:52;;;;;;;0.90;0.82;;;23.20;89.40;;;;;;5014957;28;20045;-57
2022/07/14 07:21:20;;;;;;;1.83;1.17;;;23.30;85.50;;;;;;5029027;28;20628;-53
2022/07/14 07:23:48;;;;;;;1.67;1.10;;;23.40;89.10;;;;;;5025394;28;20335;-58
2022/07/14 07:26:17;;;;;;;1.88;1.10;;;23.60;89.10;;;;;;5011797;28;20847;-56
2022/07/14 07:28:44;;;;;;;1.73;1.30;;;23.70;83.60;;;;;;5007120;28;20767;-56
2022/07/14 07:31:11;;;;;;;4.20;1.35;;;23.80;83.00;;;;;;5007781;28;20114;-55
2022/07/14 07:33:39;;;;;;;1.98;1.10;;;23.90;83.60;;;;;;4993256;28;20055;-56
2022/07/14 07:36:07;;;;;;;2.50;1.15;;;24.00;76.40;;;;;;4988811;28;20144;-55
2022/07/14 07:38:34;;;;;;;2.50;1.30;;;24.20;76.20;;;;;;5016693;28;20040;-54
2022/07/14 07:41:02;;;;;;;2.03;1.13;;;24.30;75.80;;;;;;4998576;28;20041;-52
2022/07/14 07:43:29;;;;;;;7.57;1.30;;;24.40;77.50;;;;;;4989587;28;20037;-56
2022/07/14 07:45:57;;;;;;;1.52;1.10;;;24.60;70.60;;;;;;5006725;28;20040;-54
2022/07/14 07:48:24;;;;;;;5.43;1.30;;;24.70;68.40;;;;;;5002706;28;20147;-55
2022/07/14 07:50:51;;;;;;;4.38;1.33;;;24.80;70.60;;;;;;4989206;28;20045;-54
2022/07/14 07:53:18;;;;;;;2.22;1.17;;;25.00;66.70;;;;;;4989948;28;20076;-57
2022/07/14 07:55:45;;;;;;;1.80;1.00;;;25.10;61.00;;;;;;4996101;28;20052;-56
2022/07/14 07:58:12;;;;;;;1.80;1.10;;;25.20;57.90;;;;;;5027802;28;20162;-55
2022/07/14 08:00:40;;;;;;;3.30;1.60;;;25.30;54.20;;;;;;5001744;28;20198;-54
2022/07/14 08:03:07;;;;;;;2.03;0.90;;;25.50;53.30;;;;;;5007686;28;20036;-56
2022/07/14 08:05:35;;;;;;;2.70;0.90;;;25.60;55.00;;;;;;5004491;28;20319;-64
2022/07/14 08:08:15;;;;;;;6.88;1.48;;;25.80;58.50;;;;;;4991325;28;20740;-65
2022/07/14 08:10:42;;;;;;;1.23;1.05;;;25.90;55.70;;;;;;5001968;28;20053;-65
2022/07/14 08:13:10;;;;;;;2.40;1.30;;;26.10;56.30;;;;;;5007612;28;20262;-63
2022/07/14 08:15:37;;;;;;;2.97;0.73;;;26.20;52.90;;;;;;5009435;28;20045;-64
2022/07/14 08:18:05;;;;;;;5.00;1.10;;;26.40;53.10;;;;;;5004050;28;20039;-64
2022/07/14 08:20:33;;;;;;;5.57;1.23;;;26.60;51.10;;;;;;4991593;28;20115;-64
2022/07/14 08:23:01;;;;;;;2.67;0.90;;;26.90;51.20;;;;;;5003244;28;20056;-63
2022/07/14 08:25:29;;;;;;;7.30;1.23;;;27.20;51.60;;;;;;4993176;28;20048;-67
2022/07/14 08:27:56;;;;;;;4.50;1.25;;;27.70;52.70;;;;;;5016040;28;20420;-63
2022/07/14 08:30:23;;;;;;;2.63;0.85;;;28.00;50.60;;;;;;4995771;28;20194;-67
2022/07/14 08:32:52;;;;;;;2.67;0.85;;;28.30;50.00;;;;;;5005145;28;20045;-65
2022/07/14 08:35:23;;;;;;;2.72;1.45;;;28.60;47.30;;;;;;5005122;28;20226;-67
2022/07/14 08:37:55;;;;;;;4.00;1.20;;;28.90;47.60;;;;;;4988436;28;20446;-64
2022/07/14 08:40:26;;;;;;;1.02;0.90;;;29.10;46.30;;;;;;5009563;28;20029;-63
2022/07/14 08:42:55;;;;;;;2.65;1.05;;;29.30;46.30;;;;;;5031347;28;20036;-61
2022/07/14 08:45:26;;;;;;;1.60;1.17;;;29.50;43.90;;;;;;5014571;28;20463;-64
2022/07/14 08:47:55;;;;;;;4.22;1.10;;;29.80;43.10;;;;;;5010692;28;20048;-64
2022/07/14 08:50:25;;;;;;;6.50;1.30;;;30.10;42.10;;;;;;5011778;28;20799;-64
2022/07/14 08:52:52;;;;;;;1.75;1.52;;;30.20;42.30;;;;;;5034069;28;20965;-65
2022/07/14 08:55:20;;;;;;;1.00;0.90;;;30.30;43.00;;;;;;5008079;28;20036;-64
2022/07/14 08:57:47;;;;;;;3.22;1.58;;;30.50;44.60;;;;;;5028454;28;20064;-64
2022/07/14 09:00:17;;;;;;;16.05;1.70;;;30.70;44.60;;;;;;5020138;28;20075;-63
2022/07/14 09:02:50;;;;;;;1.00;0.93;;;30.80;44.20;;;;;;5013113;28;20037;-64
2022/07/14 09:05:42;;;;;;;3.25;1.60;;;30.90;42.40;;;;;;5024269;28;20786;-66
2022/07/14 09:08:11;;;;;;;4.78;1.30;;;31.00;40.20;;;;;;5009877;28;20317;-64
2022/07/14 09:10:41;;;;;;;1.30;0.88;;;31.10;41.30;;;;;;5013010;28;20587;-64
2022/07/14 09:13:31;;;;;;;4.95;1.40;;;31.20;41.40;;;;;;5036356;28;20804;-63
2022/07/14 09:16:22;;;;;;;3.80;1.10;;;31.30;41.20;;;;;;4990959;28;20155;-63
2022/07/14 09:19:07;;;;;;;4.25;1.63;;;31.40;40.50;;;;;;5001278;28;20040;-61
2022/07/14 09:21:37;;;;;;;4.47;1.45;;;31.40;40.50;;;;;;5000931;28;20324;-64
2022/07/14 09:24:07;;;;;;;1.83;1.20;;;31.40;41.20;;;;;;5016336;28;20055;-64
2022/07/14 09:26:45;;;;;;;4.30;1.52;;;31.40;41.50;;;;;;5020541;28;20365;-63
2022/07/14 09:29:23;;;;;;;5.35;1.60;;;31.40;42.60;;;;;;5012362;28;20567;-63
2022/07/14 09:31:50;;;;;;;8.40;1.50;;;31.40;41.70;;;;;;5055619;28;20769;-63
2022/07/14 09:34:34;;;;;;;3.83;1.15;;;31.40;42.60;;;;;;5024440;28;20783;-65
2022/07/14 09:37:13;;;;;;;2.83;1.33;;;31.50;41.80;;;;;;5018785;28;20988;-63
2022/07/14 09:39:58;;;;;;;4.72;1.30;;;31.70;43.60;;;;;;5031231;28;20299;-64
2022/07/14 09:42:48;;;;;;;2.80;1.50;;;31.90;41.40;;;;;;5009017;28;20136;-65
2022/07/14 09:45:16;;;;;;;4.32;1.20;;;32.10;42.50;;;;;;5027025;28;20141;-65
2022/07/14 09:47:56;;;;;;;6.25;1.77;;;32.20;42.60;;;;;;5011624;28;20209;-64
2022/07/14 09:50:53;;;;;;;10.15;1.42;;;32.30;41.20;;;;;;5026520;28;20115;-64
2022/07/14 09:53:24;;;;;;;17.85;1.88;;;32.30;42.40;;;;;;5031185;28;20134;-65
2022/07/14 09:56:18;;;;;;;9.13;1.80;;;32.50;43.90;;;;;;5011431;28;20048;-65
2022/07/14 09:58:54;;;;;;;5.97;1.30;;;32.60;42.60;;;;;;5005207;28;20163;-65
2022/07/14 10:01:24;;;;;;;3.38;1.58;;;32.60;41.80;;;;;;5028324;28;20820;-66
2022/07/14 10:03:55;;;;;;;2.33;1.23;;;32.60;41.90;;;;;;5008934;28;20098;-65
2022/07/14 10:06:22;;;;;;;3.20;1.60;;;32.60;42.00;;;;;;5007014;28;20078;-64
2022/07/14 10:09:08;;;;;;;5.38;1.52;;;32.50;43.40;;;;;;5032030;28;20445;-64
2022/07/14 10:11:38;;;;;;;5.00;1.42;;;32.40;42.20;;;;;;5014908;28;20044;-65
2022/07/14 10:14:06;;;;;;;3.63;1.77;;;32.30;42.70;;;;;;5018461;28;20387;-63
2022/07/14 10:16:34;;;;;;;4.28;1.55;;;32.20;43.10;;;;;;5004762;28;20049;-64
2022/07/14 10:19:03;;;;;;;3.60;1.63;;;32.20;45.80;;;;;;5030313;28;20033;-62
2022/07/14 10:21:39;;;;;;;7.88;1.77;;;32.30;45.00;;;;;;5008020;28;20152;-65
2022/07/14 10:24:08;;;;;;;5.63;1.80;;;32.50;43.20;;;;;;4999672;28;20243;-65
2022/07/14 10:26:37;;;;;;;3.80;1.60;;;32.60;41.50;;;;;;5034653;28;20101;-65
2022/07/14 10:29:05;;;;;;;2.83;1.40;;;32.80;42.00;;;;;;5035324;28;20470;-65
2022/07/14 10:31:41;;;;;;;3.80;1.23;;;32.90;44.10;;;;;;5001577;28;20813;-64
2022/07/14 10:34:44;;;;;;;6.07;1.40;;;33.00;43.50;;;;;;5025582;28;20093;-61
2022/07/14 10:37:39;;;;;;;2.47;1.50;;;33.10;43.30;;;;;;5000563;28;20033;-60
2022/07/14 10:40:28;;;;;;;4.53;1.30;;;33.30;43.90;;;;;;4983475;28;20297;-63
2022/07/14 10:43:00;;;;;;;1.60;1.23;;;33.50;43.60;;;;;;5008133;28;20106;-64
2022/07/14 10:45:50;;;;;;;3.72;1.60;;;33.70;40.40;;;;;;5022685;28;20066;-64
2022/07/14 10:48:35;;;;;;;1.45;1.30;;;33.80;37.40;;;;;;5009182;28;20414;-63
2022/07/14 10:51:27;;;;;;;6.88;1.50;;;33.60;37.50;;;;;;5015259;28;20547;-63
2022/07/14 10:54:12;;;;;;;3.20;1.40;;;33.50;36.40;;;;;;5023190;28;20347;-65
2022/07/14 10:57:15;;;;;;;2.88;1.17;;;33.50;37.30;;;;;;5013029;28;20214;-64
2022/07/14 10:59:45;;;;;;;5.85;1.52;;;33.50;37.00;;;;;;5010067;28;20048;-64
2022/07/14 11:02:13;;;;;;;3.38;1.10;;;33.40;36.80;;;;;;5010973;28;20577;-65
2022/07/14 11:05:08;;;;;;;1.65;1.17;;;33.30;36.00;;;;;;5011649;28;20036;-64
2022/07/14 11:08:02;;;;;;;2.75;1.15;;;33.20;37.60;;;;;;5007260;28;20033;-64
2022/07/14 11:10:30;;;;;;;2.10;1.10;;;33.10;37.70;;;;;;4988754;28;20586;-65
2022/07/14 11:12:59;;;;;;;1.90;1.50;;;33.00;35.40;;;;;;5008633;28;20643;-64
2022/07/14 11:15:54;;;;;;;4.30;1.20;;;32.90;37.90;;;;;;5009209;28;20044;-64
2022/07/14 11:18:24;;;;;;;5.95;1.38;;;32.90;37.00;;;;;;4992456;28;20850;-65
2022/07/14 11:21:03;;;;;;;3.65;1.33;;;33.00;38.00;;;;;;4992043;28;20143;-64
2022/07/14 11:23:48;;;;;;;2.83;1.13;;;33.10;37.20;;;;;;5001559;28;20097;-64
2022/07/14 11:26:47;;;;;;;8.05;1.33;;;33.10;36.00;;;;;;5013790;28;20047;-65
2022/07/14 11:29:15;;;;;;;2.83;1.20;;;33.20;36.10;;;;;;5017194;28;20036;-65
2022/07/14 11:31:48;;;;;;;3.92;1.58;;;33.30;37.60;;;;;;5013155;28;20032;-65
2022/07/14 11:37:14;;;;;;;9.43;1.48;;;33.60;37.80;;;;;;5014229;28;20059;-65
2022/07/14 11:40:40;;;;;;;2.88;1.77;;;33.70;36.10;;;;;;5028239;28;20044;-64
2022/07/14 11:43:26;;;;;;;2.05;1.13;;;33.70;35.10;;;;;;5012127;28;20040;-65
2022/07/14 11:45:59;;;;;;;1.38;1.27;;;33.70;35.20;;;;;;5015209;28;20350;-66
2022/07/14 11:48:48;;;;;;;2.03;1.25;;;33.80;36.60;;;;;;5008455;28;20056;-65
2022/07/14 11:51:27;;;;;;;2.60;2.05;;;34.00;37.10;;;;;;5012678;28;20127;-64
2022/07/14 11:53:58;;;;;;;1.77;1.20;;;34.10;36.40;;;;;;5010943;28;20579;-64
2022/07/14 11:56:28;;;;;;;4.60;1.67;;;34.20;34.90;;;;;;5012014;28;20570;-64
2022/07/14 11:59:03;;;;;;;6.40;1.27;;;34.10;35.00;;;;;;5014463;28;20041;-65
2022/07/14 12:01:35;;;;;;;;;;;34.00;34.80;;;;;;4994850;28;20051;-65
2022/07/14 12:04:10;;;;;;;3.45;1.35;;;33.90;34.20;;;;;;4990597;28;20365;-65
2022/07/14 12:06:40;;;;;;;3.92;1.20;;;33.80;35.50;;;;;;5001183;28;20052;-66
2022/07/14 12:09:09;;;;;;;1.98;1.27;;;33.80;36.50;;;;;;4994216;28;20036;-64
2022/07/14 12:11:56;;;;;;;6.30;1.67;;;33.90;35.40;;;;;;5022997;28;20072;-65
2022/07/14 12:14:24;;;;;;;2.38;1.30;;;33.90;36.20;;;;;;4996868;28;20785;-65
2022/07/14 12:16:51;;;;;;;2.20;1.50;;;33.90;36.10;;;;;;4991000;28;20144;-65
2022/07/14 12:19:29;;;;;;;1.83;1.38;;;33.80;34.50;;;;;;5003754;28;20037;-64
2022/07/14 12:22:01;;;;;;;5.18;1.98;;;33.70;36.60;;;;;;4989360;28;20390;-66
2022/07/14 12:24:28;;;;;;;1.40;1.30;;;33.70;35.80;;;;;;5002402;28;20252;-65
2022/07/14 12:27:03;;;;;;;5.50;1.55;;;33.70;36.10;;;;;;5012905;28;20972;-67
2022/07/14 12:29:31;;;;;;;2.58;1.30;;;33.70;37.00;;;;;;5022627;28;21151;-65
2022/07/14 12:31:59;;;;;;;3.10;1.73;;;33.70;36.50;;;;;;5012276;28;20798;-65
2022/07/14 12:34:27;;;;;;;2.70;1.60;;;33.80;36.00;;;;;;5011728;28;20909;-65
2022/07/14 12:36:59;;;;;;;9.52;1.58;;;33.80;36.30;;;;;;5009998;28;20668;-63
2022/07/14 12:39:27;;;;;;;4.32;1.48;;;33.90;37.00;;;;;;5013325;28;20041;-59
2022/07/14 12:41:55;;;;;;;3.20;1.45;;;33.90;36.70;;;;;;5024161;28;20037;-60
2022/07/14 12:44:22;;;;;;;2.47;1.77;;;34.00;36.30;;;;;;5009646;28;20036;-61
2022/07/14 12:47:12;;;;;;;3.88;1.80;;;34.10;38.00;;;;;;5010458;28;20048;-62
2022/07/14 12:49:44;;;;;;;2.67;1.58;;;34.20;35.80;;;;;;5012906;28;20047;-65
2022/07/14 12:52:13;;;;;;;2.42;1.33;;;34.40;36.20;;;;;;5008223;28;20037;-65
2022/07/14 12:54:41;;;;;;;1.88;1.48;;;34.50;36.90;;;;;;5009041;28;20040;-65
2022/07/14 12:57:34;;;;;;;5.57;1.67;;;34.50;35.30;;;;;;5010414;28;20101;-66
2022/07/14 13:00:13;;;;;;;2.33;1.42;;;34.50;35.50;;;;;;5006575;28;20055;-67
2022/07/14 13:02:40;;;;;;;5.45;1.60;;;34.60;35.90;;;;;;4989330;28;20036;-65
2022/07/14 13:05:10;;;;;;;3.08;1.30;;;34.60;35.40;;;;;;4990217;28;20567;-67
2022/07/14 13:07:39;;;;;;;4.50;1.67;;;34.50;34.40;;;;;;4993760;28;20049;-66
2022/07/14 13:10:11;;;;;;;6.18;1.60;;;34.50;34.20;;;;;;4992508;28;20274;-66
2022/07/14 13:12:43;;;;;;;3.90;1.40;;;34.60;35.80;;;;;;5006328;28;20056;-65
2022/07/14 13:15:12;;;;;;;3.55;1.42;;;34.50;35.10;;;;;;5012338;28;20060;-62
2022/07/14 13:17:57;;;;;;;4.32;1.38;;;34.60;38.00;;;;;;5005415;28;20850;-64
2022/07/14 13:20:45;;;;;;;1.50;1.40;;;34.70;36.10;;;;;;5012084;28;20051;-65